Eldridge, AL (35554)

10:18 AM CDT on July 01, 2015 (GMT -0500)
Bevill State | | Change Station
CLOSE
Current Station
Personal Weather Station
Location: Fayette, AL
Elevation: 423 ft
Nearby Weather Stations

Elev 423 ft 33.73 °N, 87.82 °W | Updated 17 minutes ago

Overcast
Overcast
76.6 °F
Feels Like 78 °F
N
6.0
Wind Variable Wind from SW
Gusts 6.0 mph

Today
High -- | Low -- °F
--% Chance of Precip.
Yesterday
High -- | Low -- °F
Precip. -- in
5:43 AM 8:05 PM
Full, 100% visible
Pressure 30.06 in
Visibility 8.0 miles
Clouds Overcast 1000 ft
Heat Index 78 °F
Dew Point 71 °F
Humidity 83%
Rainfall 0.00 in
Snow Depth Not available.
UV 3 out of 12
Pollen 2.80 out of 12
Air Quality Not available.
Flu Activity Not available.
METAR KJFX 011515Z AUTO 00000KT 8SM OVC010 26/22 A3006 RMK A02 P-128

More Conditions Fewer Conditions

Pressure 30.06 in
Visibility 8.0 miles
Clouds Overcast 1000 ft
Heat Index 78 °F
Dew Point 71 °F
Humidity 83%
Rainfall 0.00 in
Snow Depth Not available.
UV 3 out of 12
Pollen 2.80 out of 12
Air Quality Not available.
Flu Activity Not available.
METAR KJFX 011515Z AUTO 00000KT 8SM OVC010 26/22 A3006 RMK A02 P-128

More Conditions Fewer Conditions

10-Day Weather Forecast

×

Almanac

Astronomy

Jul. 01, 2015 Rise Set
Actual Time
Civil Twilight
Nautical Twilight
Astronomical Twilight
Moon
Length of Visible Light
Length of Day
Tomorrow will be .
, % of the Moon is Illuminated

Today's Extremes

State Highs State Lows

Community

WunderPhotos

Upload Photos

1,834,224 photos uploaded!

WunderBlogs® & News

Nearby

Air Quality

  Air Quality AQ Index Pollutant
Not available.

Snow Depth

Station Depth Elevation

Earthquake Activity

City Distance Mag. Time & Date
Minimum magnitude displayed is 2.5.

Coastal Water Temperatures

Place Temperature

Stations

Nearby Weather Stations

Station Location Temp. Windchill Dew Point Humidity Wind Precip. Elev Updated Type